Latest Coastal Weather Observations for Point Stuart

IDD60701

Issued at 11:35 am CST Tuesday 2 September 2014 (issued every 10 minutes, with the page automatically refreshed every 10 minutes)

About coastal observations | Map of coastal stations | Coastal observations for NT | Marine services | Other Formats
Station Details ID: 014254 Name: POINT STUART Lat: -12.24 Lon: 131.88 Height: 1.0 m
Data from the previous 72 hours. | See also: Recent months for locations in Northern Territory
Date/Time
CST
Temp

°C
Wind Pressure Rain
since 9am
mm
Weather Cloud Vis
km
Sea
Height
m
Swell
Dir
 
Speed
knots
Gust
knots
hPa Trend Height
m
Period
s
Dir
02/11:30am 30.4 NNE 9 13 1014.5 - 0.0 - - - - - - -
02/11:00am 29.1 ENE 8 11 1014.9 - 0.0 - - - - - - -
02/10:30am 28.7 E 7 11 1015.3 - 0.0 - - - - - - -
02/10:00am 27.6 NE 6 9 1015.3 - 0.0 - - - - - - -
02/09:30am 26.7 NNE 5 7 1015.4 - 0.0 - - - - - - -
02/09:00am 25.3 NE 5 7 1015.5 - 0.8 - - - - - - -
02/08:30am 22.7 NE 4 5 1015.3 - 0.8 - - - - - - -
02/08:00am 19.8 N 3 4 1015.2 - 0.8 - - - - - - -
02/07:30am 17.4 CALM 0 0 1014.9 - 0.8 - - - - - - -
02/07:00am 16.0 CALM 0 3 1014.5 - 0.8 - - - - - - -
02/06:30am 16.8 CALM 0 0 1014.4 - 0.8 - - - - - - -
02/06:00am 16.7 N 0 0 1014.1 - 0.8 - - - - - - -
02/05:30am 17.8 CALM 0 0 1014.1 - 0.8 - - - - - - -
02/05:00am 17.6 CALM 0 0 1014.2 - 0.8 - - - - - - -
02/04:30am 17.3 CALM 0 0 1014.2 - 0.8 - - - - - - -
02/04:00am 18.3 CALM 0 2 1014.1 - 0.8 - - - - - - -
02/03:30am 17.7 N 3 4 1014.2 - 0.8 - - - - - - -
02/03:00am 17.7 N 1 4 1014.4 - 0.8 - - - - - - -
02/02:30am 17.8 N 1 3 1014.3 - 0.8 - - - - - - -
02/02:00am 18.1 N 2 3 1014.4 - 0.8 - - - - - - -
02/01:30am 18.5 N 1 3 1014.6 - 0.8 - - - - - - -
02/01:00am 18.6 N 3 4 1014.5 - 0.8 - - - - - - -
02/12:30am 19.6 CALM 0 0 1014.7 - 0.8 - - - - - - -
02/12:00am 20.5 N 3 3 1014.8 - 0.8 - - - - - - -
 
Date/Time
CST
Temp

°C
Wind Pressure Rain
since 9am
mm
Weather Cloud Vis
km
Sea
Height
m
Swell
Dir
 
Speed
knots
Gust
knots
hPa Trend Height
m
Period
s
Dir
01/11:30pm 20.7 N 1 3 1014.7 - 0.8 - - - - - - -
01/11:00pm 22.2 N 4 6 1014.4 - 0.8 - - - - - - -
01/10:30pm 22.5 N 4 5 1014.4 - 0.8 - - - - - - -
01/10:00pm 22.4 N 5 7 1014.1 - 0.8 - - - - - - -
01/09:30pm 23.4 NNE 4 6 1013.8 - 0.8 - - - - - - -
01/09:00pm 23.5 NE 5 7 1013.1 - 0.8 - - - - - - -
01/08:30pm 22.6 NE 10 13 1012.7 - 0.8 - - - - - - -
01/08:00pm 22.8 WNW 3 4 1011.5 - 0.8 - - - - - - -
01/07:30pm 23.5 WNW 2 3 1011.1 - 0.8 - - - - - - -
01/07:00pm 24.7 WNW 4 5 1010.7 - 0.8 - - - - - - -
01/06:30pm 26.5 NW 6 7 1010.5 - 0.8 - - - - - - -
01/06:00pm 27.8 NW 8 11 1010.5 - 0.8 - - - - - - -
01/05:30pm 28.9 NW 9 11 1010.3 - 0.8 - - - - - - -
01/05:00pm 29.1 NW 9 12 1010.4 - 0.8 - - - - - - -
01/04:30pm 30.1 NW 11 13 1010.3 - 0.8 - - - - - - -
01/04:00pm 30.9 NNW 10 13 1010.3 - 0.8 - - - - - - -
01/03:30pm 29.6 NNW 10 15 1010.4 - 0.0 - - - - - - -
01/03:00pm 30.4 NNW 10 14 1010.8 - 0.0 - - - - - - -
01/02:30pm 30.5 NNW 9 13 1011.0 - 0.0 - - - - - - -
01/02:00pm 31.6 NNW 10 14 1011.4 - 0.0 - - - - - - -
01/01:30pm 30.8 N 9 16 1011.9 - 0.0 - - - - - - -
01/01:00pm 31.1 N 7 11 1012.5 - 0.0 - - - - - - -
01/12:30pm 30.3 NE 8 12 1013.1 - 0.0 - - - - - - -
01/12:00pm 29.8 NE 8 13 1013.9 - 0.0 - - - - - - -
01/11:30am 29.3 NE 8 11 1014.4 - 0.0 - - - - - - -
01/11:00am 28.6 ENE 9 13 1015.0 - 0.0 - - - - - - -
01/10:30am 27.8 E 6 10 1015.3 - 0.0 - - - - - - -
01/10:00am 27.7 NE 5 10 1015.5 - 0.0 - - - - - - -
01/09:30am 27.1 NNE 3 7 1015.4 - 0.0 - - - - - - -
01/09:00am 25.7 W 4 8 1015.4 - 0.0 - - - - - - -
01/08:30am 23.4 WSW 3 5 1015.4 - 0.0 - - - - - - -
01/08:00am 20.2 SSE 2 4 1015.1 - 0.0 - - - - - - -
01/07:30am 18.6 NE 4 5 1014.9 - 0.0 - - - - - - -
01/07:00am 17.9 NE 4 5 1014.7 - 0.0 - - - - - - -
01/06:30am 18.4 NE 5 6 1014.5 - 0.0 - - - - - - -
01/06:00am 18.8 NE 3 5 1014.1 - 0.0 - - - - - - -
01/05:30am 19.3 NE 3 4 1013.9 - 0.0 - - - - - - -
01/05:00am 21.7 NE 4 5 1013.8 - 0.0 - - - - - - -
01/04:30am 22.6 NE 5 8 1013.5 - 0.0 - - - - - - -
01/04:00am 22.6 NE 5 7 1013.3 - 0.0 - - - - - - -
01/03:30am 22.2 NE 6 7 1013.3 - 0.0 - - - - - - -
01/03:00am 20.5 NNE 6 9 1013.3 - 0.0 - - - - - - -
01/02:30am 18.7 NNE 4 5 1013.3 - 0.0 - - - - - - -
01/02:00am 18.1 NNE 5 6 1013.4 - 0.0 - - - - - - -
01/01:30am 17.5 NNE 4 5 1013.4 - 0.0 - - - - - - -
01/01:00am 17.7 CALM 0 0 1013.4 - 0.0 - - - - - - -
01/12:30am 18.0 CALM 0 0 1013.4 - 0.0 - - - - - - -
01/12:00am 19.1 CALM 0 0 1013.4 - 0.0 - - - - - - -
 
Date/Time
CST
Temp

°C
Wind Pressure Rain
since 9am
mm
Weather Cloud Vis
km
Sea
Height
m
Swell
Dir
 
Speed
knots
Gust
knots
hPa Trend Height
m
Period
s
Dir
31/11:30pm 19.1 CALM 0 0 1013.5 - 0.0 - - - - - - -
31/11:00pm 19.6 CALM 0 0 1013.2 - 0.0 - - - - - - -
31/10:30pm 21.3 NNE 1 3 1013.0 - 0.0 - - - - - - -
31/10:00pm 21.8 NNE 4 6 1012.7 - 0.0 - - - - - - -
31/09:30pm 22.1 NNE 4 5 1012.6 - 0.0 - - - - - - -
31/09:00pm 22.2 NNE 4 6 1012.2 - 0.0 - - - - - - -
31/08:30pm 22.6 NNE 5 7 1011.7 - 0.0 - - - - - - -
31/08:00pm 21.2 NW 2 3 1011.0 - 0.0 - - - - - - -
31/07:30pm 21.9 NW 2 4 1010.6 - 0.0 - - - - - - -
31/07:00pm 23.8 NW 4 5 1010.2 - 0.0 - - - - - - -
31/06:30pm 25.9 NW 5 6 1009.9 - 0.0 - - - - - - -
31/06:00pm 28.1 NW 7 10 1009.6 - 0.0 - - - - - - -
31/05:30pm 28.8 NW 10 13 1009.4 - 0.0 - - - - - - -
31/05:00pm 29.7 NNW 11 14 1009.4 - 0.0 - - - - - - -
31/04:30pm 30.3 NW 11 15 1009.5 - 0.0 - - - - - - -
31/04:00pm 30.2 NNW 8 11 1009.6 - 0.0 - - - - - - -
31/03:30pm 29.8 N 9 13 1009.7 - 0.0 - - - - - - -
31/03:00pm 30.6 NNW 9 13 1010.0 - 0.0 - - - - - - -
31/02:30pm 32.0 N 6 11 1010.2 - 0.0 - - - - - - -
31/02:00pm 31.4 NNW 10 14 1010.6 - 0.0 - - - - - - -
31/01:30pm 31.9 E 9 15 1011.1 - 0.0 - - - - - - -
31/01:00pm 31.6 E 8 15 1011.6 - 0.0 - - - - - - -
31/12:30pm 30.8 E 8 12 1012.2 - 0.0 - - - - - - -
31/12:00pm 29.6 E 8 11 1012.9 - 0.0 - - - - - - -
31/11:30am 29.7 ENE 8 13 1013.6 - 0.0 - - - - - - -
31/11:00am 28.7 NW 6 9 1014.3 - 0.0 - - - - - - -
31/10:30am 27.2 E 7 11 1014.7 - 0.0 - - - - - - -
31/10:00am 26.8 ENE 8 11 1015.1 - 0.0 - - - - - - -
31/09:30am 27.0 ENE 7 10 1015.1 - 0.0 - - - - - - -
31/09:00am 24.9 ESE 5 6 1014.9 - 1.6 - - - - - - -
31/08:30am 22.6 NE 1 3 1014.6 - 1.6 - - - - - - -
31/08:00am 19.3 CALM 0 0 1014.4 - 1.6 - - - - - - -
31/07:30am 17.2 NNE 3 4 1014.0 - 1.6 - - - - - - -
31/07:00am 16.6 NNE 3 4 1013.7 - 1.6 - - - - - - -
31/06:30am 16.8 N 4 5 1013.4 - 1.0 - - - - - - -
31/06:00am 16.8 N 1 5 1013.1 - 0.6 - - - - - - -
31/05:30am 16.9 N 1 4 1012.8 - 0.6 - - - - - - -
31/05:00am 17.1 CALM 0 0 1012.9 - 0.6 - - - - - - -
31/04:30am 17.1 CALM 0 1 1012.9 - 0.4 - - - - - - -
31/04:00am 17.4 NNE 1 3 1013.0 - 0.2 - - - - - - -
31/03:30am 17.3 NE 1 3 1013.1 - 0.2 - - - - - - -
31/03:00am 17.5 CALM 0 0 1013.2 - 0.2 - - - - - - -
31/02:30am 17.8 N 1 3 1013.4 - 0.2 - - - - - - -
31/02:00am 18.8 CALM 0 0 1013.6 - 0.2 - - - - - - -
31/01:30am 18.7 NE 3 4 1013.7 - 0.2 - - - - - - -
31/01:00am 18.1 NE 3 4 1013.7 - 0.2 - - - - - - -
31/12:30am 18.9 NNE 1 3 1013.6 - 0.2 - - - - - - -
31/12:00am 19.1 N 3 4 1013.6 - 0.2 - - - - - - -
 
Date/Time
CST
Temp

°C
Wind Pressure Rain
since 9am
mm
Weather Cloud Vis
km
Sea
Height
m
Swell
Dir
 
Speed
knots
Gust
knots
hPa Trend Height
m
Period
s
Dir
30/11:30pm 19.5 N 4 5 1013.6 - 0.2 - - - - - - -
30/11:00pm 19.9 CALM 0 0 1013.2 - 0.2 - - - - - - -
30/10:30pm 21.1 CALM 0 3 1013.0 - 0.2 - - - - - - -
30/10:00pm 22.2 N 4 6 1012.9 - 0.2 - - - - - - -
30/09:30pm 23.7 NE 4 5 1012.9 - 0.2 - - - - - - -
30/09:00pm 24.0 NE 6 11 1012.7 - 0.2 - - - - - - -
30/08:30pm 20.9 N 5 7 1012.3 - 0.2 - - - - - - -
30/08:00pm 21.8 NW 4 5 1011.9 - 0.2 - - - - - - -
30/07:30pm 22.4 NW 4 6 1011.5 - 0.2 - - - - - - -
30/07:00pm 23.4 WNW 5 6 1011.1 - 0.2 - - - - - - -
30/06:30pm 25.7 WNW 6 8 1010.9 - 0.2 - - - - - - -
30/06:00pm 27.6 WNW 7 10 1010.4 - 0.2 - - - - - - -
30/05:30pm 28.7 N 5 9 1010.2 - 0.2 - - - - - - -
30/05:00pm 29.2 N 6 8 1010.1 - 0.2 - - - - - - -
30/04:30pm 30.1 N 7 9 1010.1 - 0.2 - - - - - - -
30/04:00pm 30.4 N 7 9 1010.2 - 0.2 - - - - - - -
30/03:30pm 31.0 N 7 10 1010.3 - 0.0 - - - - - - -
30/03:00pm 30.5 N 8 13 1010.6 - 0.0 - - - - - - -
30/02:30pm 31.2 N 7 11 1011.1 - 0.0 - - - - - - -
30/02:00pm 31.4 NE 8 13 1011.6 - 0.0 - - - - - - -
30/01:30pm 31.1 ENE 8 13 1012.0 - 0.0 - - - - - - -
30/01:00pm 31.4 ENE 9 13 1012.7 - 0.0 - - - - - - -
30/12:30pm 30.4 E 9 14 1013.5 - 0.0 - - - - - - -
30/12:00pm 30.5 E 10 14 1014.2 - 0.0 - - - - - - -

Other Formats:

Comma delimited format used in spreadsheet applications
http://www.bom.gov.au/fwo/IDD60701/IDD60701.94127.axf

JavaScript Object Notation format (JSON) in row-major order
http://www.bom.gov.au/fwo/IDD60701/IDD60701.94127.json